Time;durP1;ratioP1;P1;durP2;ratioP2;P2;SDS_P1;SDS_P2;PMS_P1;PMS_P2;Temp;Humidity;BMP_temperature;BMP_pressure;BME280_temperature;BME280_humidity;BME280_pressure;Samples;Min_cycle;Max_cycle;Signal;HPM_P1;HPM_P2
2023/05/03 00:00:03;;;;;;;1.02;0.65;;;;;;;;;;1021632;29;20129;-74
2023/05/03 00:00:34;;;;;;;5.47;0.93;;;;;;;;;;1021636;29;20074;-74
2023/05/03 00:01:08;;;;;;;1.58;1.02;;;;;;;;;;1021941;29;20078;-74
2023/05/03 00:01:39;;;;;;;3.05;0.95;;;;;;;;;;1021945;29;20065;-74
2023/05/03 00:02:10;;;;;;;1.83;1.40;;;;;;;;;;1021774;29;20476;-74
2023/05/03 00:02:43;;;;;;;1.77;1.55;;;;;;;;;;1021883;29;20019;-73
2023/05/03 00:03:13;;;;;;;0.85;0.60;;;;;;;;;;1022760;29;20495;-73
2023/05/03 00:03:44;;;;;;;0.30;0.30;;;;;;;;;;1021325;29;20118;-74
2023/05/03 00:04:15;;;;;;;10.45;2.28;;;;;;;;;;1021373;29;20122;-73
2023/05/03 00:04:47;;;;;;;2.33;0.70;;;;;;;;;;1021579;29;20024;-73
2023/05/03 00:05:17;;;;;;;3.15;2.88;;;;;;;;;;1023181;29;20078;-74
2023/05/03 00:05:48;;;;;;;1.38;0.90;;;;;;;;;;1021750;29;20415;-74
2023/05/03 00:06:19;;;;;;;2.20;1.17;;;;;;;;;;1021897;29;20035;-73
2023/05/03 00:06:50;;;;;;;17.58;2.08;;;;;;;;;;1023169;29;20027;-74
2023/05/03 00:07:21;;;;;;;0.85;0.68;;;;;;;;;;1023548;29;20122;-73
2023/05/03 00:07:52;;;;;;;4.32;1.42;;;;;;;;;;1023227;29;20065;-73
2023/05/03 00:08:22;;;;;;;2.13;1.83;;;;;;;;;;1021319;29;20026;-74
2023/05/03 00:08:53;;;;;;;0.85;0.70;;;;;;;;;;1021102;29;20090;-75
2023/05/03 00:09:23;;;;;;;3.47;1.02;;;;;;;;;;1021266;29;20028;-73
2023/05/03 00:09:53;;;;;;;7.35;1.20;;;;;;;;;;1021386;29;20012;-74
2023/05/03 00:10:24;;;;;;;2.30;1.15;;;;;;;;;;1023290;29;20102;-74
2023/05/03 00:10:58;;;;;;;1.67;0.98;;;;;;;;;;1023252;29;20435;-74
2023/05/03 00:11:29;;;;;;;0.70;0.70;;;;;;;;;;1023399;28;20471;-74
2023/05/03 00:12:00;;;;;;;3.00;1.75;;;;;;;;;;1023296;29;20028;-74
2023/05/03 00:12:31;;;;;;;3.58;1.05;;;;;;;;;;1019385;29;20028;-74
2023/05/03 00:13:01;;;;;;;2.22;1.65;;;;;;;;;;1019243;29;20167;-74
2023/05/03 00:13:31;;;;;;;0.85;0.82;;;;;;;;;;1019493;29;20023;-74
2023/05/03 00:14:02;;;;;;;3.58;1.90;;;;;;;;;;1018310;29;20027;-75
2023/05/03 00:14:32;;;;;;;3.03;1.27;;;;;;;;;;1017245;29;20020;-73
2023/05/03 00:15:03;;;;;;;1.15;0.73;;;;;;;;;;1021164;29;20591;-74
2023/05/03 00:15:34;;;;;;;1.35;1.20;;;;;;;;;;1017157;29;20032;-73
2023/05/03 00:16:05;;;;;;;6.85;2.35;;;;;;;;;;1019306;29;20058;-74
2023/05/03 00:16:35;;;;;;;1.95;1.20;;;;;;;;;;1019664;29;20031;-73
2023/05/03 00:17:06;;;;;;;1.00;0.75;;;;;;;;;;1020176;29;20031;-73
2023/05/03 00:17:36;;;;;;;0.50;0.50;;;;;;;;;;1021634;29;20055;-73
2023/05/03 00:18:07;;;;;;;0.90;0.90;;;;;;;;;;1018579;29;20020;-74
2023/05/03 00:18:38;;;;;;;1.75;1.65;;;;;;;;;;1017354;29;20032;-73
2023/05/03 00:19:08;;;;;;;1.67;1.23;;;;;;;;;;1019560;29;20011;-74
2023/05/03 00:19:38;;;;;;;2.13;0.98;;;;;;;;;;1021443;29;20439;-74
2023/05/03 00:20:10;;;;;;;1.58;1.45;;;;;;;;;;1022477;29;20023;-74
2023/05/03 00:20:41;;;;;;;3.30;3.00;;;;;;;;;;1019226;29;20031;-73
2023/05/03 00:21:11;;;;;;;1.95;1.33;;;;;;;;;;1019379;29;20391;-74
2023/05/03 00:21:42;;;;;;;1.02;0.73;;;;;;;;;;1019428;29;20172;-74
2023/05/03 00:22:12;;;;;;;0.52;0.52;;;;;;;;;;1019357;29;20032;-73
2023/05/03 00:22:43;;;;;;;3.65;0.82;;;;;;;;;;1022529;29;20032;-73
2023/05/03 00:23:13;;;;;;;3.05;1.20;;;;;;;;;;1021626;29;20050;-74
2023/05/03 00:23:43;;;;;;;1.10;1.00;;;;;;;;;;1021327;29;20020;-74
2023/05/03 00:24:14;;;;;;;1.02;0.93;;;;;;;;;;1021477;29;20027;-73
2023/05/03 00:24:44;;;;;;;0.40;0.40;;;;;;;;;;1021793;29;20031;-73
2023/05/03 00:25:15;;;;;;;1.00;0.93;;;;;;;;;;1022028;29;20026;-74
2023/05/03 00:25:45;;;;;;;2.20;1.25;;;;;;;;;;1021641;29;20471;-73
2023/05/03 00:26:16;;;;;;;2.33;1.27;;;;;;;;;;1020946;29;20023;-74
2023/05/03 00:26:46;;;;;;;3.80;1.25;;;;;;;;;;1021125;29;20031;-74
2023/05/03 00:27:17;;;;;;;0.70;0.70;;;;;;;;;;1020147;29;20078;-73
2023/05/03 00:27:48;;;;;;;1.75;1.65;;;;;;;;;;1020899;29;20028;-73
2023/05/03 00:28:18;;;;;;;2.83;2.63;;;;;;;;;;1021532;29;20499;-74
2023/05/03 00:28:49;;;;;;;0.93;0.93;;;;;;;;;;1020384;29;20130;-73
2023/05/03 00:29:21;;;;;;;8.93;1.58;;;;;;;;;;1021665;29;20023;-73
2023/05/03 00:29:52;;;;;;;2.17;0.90;;;;;;;;;;1021410;29;20027;-73
2023/05/03 00:30:23;;;;;;;0.68;0.50;;;;;;;;;;1021449;29;20011;-73
2023/05/03 00:30:54;;;;;;;0.28;0.28;;;;;;;;;;1021231;29;20038;-76
2023/05/03 00:31:24;;;;;;;1.48;1.00;;;;;;;;;;1021477;29;20020;-73
2023/05/03 00:31:55;;;;;;;3.05;1.08;;;;;;;;;;1021345;29;20023;-73
2023/05/03 00:32:25;;;;;;;3.35;1.35;;;;;;;;;;1023229;29;20026;-73
2023/05/03 00:32:56;;;;;;;0.68;0.65;;;;;;;;;;1023237;29;20499;-73
2023/05/03 00:33:27;;;;;;;3.95;0.73;;;;;;;;;;1023482;29;20023;-73
2023/05/03 00:33:57;;;;;;;1.50;1.23;;;;;;;;;;1022975;29;20063;-73
2023/05/03 00:34:28;;;;;;;3.83;2.05;;;;;;;;;;1021832;29;20467;-74
2023/05/03 00:34:58;;;;;;;0.40;0.30;;;;;;;;;;1020649;29;20558;-73
2023/05/03 00:35:29;;;;;;;5.85;2.75;;;;;;;;;;1020948;29;20030;-73
2023/05/03 00:36:05;;;;;;;1.92;1.63;;;;;;;;;;1020691;29;20447;-75
2023/05/03 00:36:35;;;;;;;4.80;2.03;;;;;;;;;;1021221;29;20074;-73
2023/05/03 00:37:06;;;;;;;0.30;0.30;;;;;;;;;;1021620;29;20475;-73
2023/05/03 00:37:36;;;;;;;1.98;0.95;;;;;;;;;;1021060;29;20394;-73
2023/05/03 00:38:07;;;;;;;1.13;0.80;;;;;;;;;;1020608;29;20439;-73
2023/05/03 00:38:38;;;;;;;1.60;1.40;;;;;;;;;;1021643;29;20019;-73
2023/05/03 00:39:08;;;;;;;1.35;1.02;;;;;;;;;;1021640;29;20485;-73
2023/05/03 00:39:39;;;;;;;1.55;1.38;;;;;;;;;;1021387;29;20110;-73
2023/05/03 00:40:09;;;;;;;8.60;1.40;;;;;;;;;;1021372;29;20495;-74
2023/05/03 00:40:40;;;;;;;2.15;1.60;;;;;;;;;;1021340;29;20015;-73
2023/05/03 00:41:11;;;;;;;2.55;1.05;;;;;;;;;;1021237;29;20027;-75
2023/05/03 00:41:42;;;;;;;4.53;0.95;;;;;;;;;;1021734;29;20063;-73
2023/05/03 00:42:12;;;;;;;4.95;1.15;;;;;;;;;;1022195;29;20027;-73
2023/05/03 00:42:44;;;;;;;0.63;0.50;;;;;;;;;;1020803;29;21312;-73
2023/05/03 00:43:14;;;;;;;1.42;1.17;;;;;;;;;;1021123;29;20051;-73
2023/05/03 00:43:45;;;;;;;2.45;1.50;;;;;;;;;;1022030;29;20023;-75
2023/05/03 00:44:15;;;;;;;5.15;1.45;;;;;;;;;;1020626;29;20042;-73
2023/05/03 00:44:46;;;;;;;0.40;0.30;;;;;;;;;;1020764;29;20166;-75
2023/05/03 00:45:16;;;;;;;1.70;1.10;;;;;;;;;;1021382;29;20038;-75
2023/05/03 00:45:47;;;;;;;0.77;0.65;;;;;;;;;;1020883;29;20022;-74
2023/05/03 00:46:17;;;;;;;4.05;1.50;;;;;;;;;;1022485;29;20062;-75
2023/05/03 00:46:48;;;;;;;1.20;1.08;;;;;;;;;;1021483;29;20019;-74
2023/05/03 00:47:18;;;;;;;0.22;0.22;;;;;;;;;;1021860;29;20026;-75
2023/05/03 00:47:49;;;;;;;1.40;0.85;;;;;;;;;;1022493;29;20043;-73
2023/05/03 00:48:19;;;;;;;0.85;0.70;;;;;;;;;;1022193;29;20027;-75
2023/05/03 00:48:50;;;;;;;2.90;1.35;;;;;;;;;;1022965;29;20031;-74
2023/05/03 00:49:20;;;;;;;1.70;0.98;;;;;;;;;;1023411;29;20083;-73
2023/05/03 00:49:51;;;;;;;1.70;0.95;;;;;;;;;;1021719;29;20023;-74
2023/05/03 00:50:21;;;;;;;1.08;0.55;;;;;;;;;;1021371;29;20035;-75
2023/05/03 00:50:53;;;;;;;8.55;2.08;;;;;;;;;;1021227;29;20484;-74
2023/05/03 00:51:26;;;;;;;4.07;1.70;;;;;;;;;;1021590;29;20104;-74
2023/05/03 00:51:58;;;;;;;1.75;1.10;;;;;;;;;;1021694;29;20023;-75
2023/05/03 00:52:28;;;;;;;2.40;1.75;;;;;;;;;;1019050;29;20503;-74
2023/05/03 00:52:59;;;;;;;1.58;0.70;;;;;;;;;;1019003;29;20047;-75
2023/05/03 00:53:30;;;;;;;1.65;1.45;;;;;;;;;;1019374;29;20110;-76
2023/05/03 00:54:00;;;;;;;0.50;0.50;;;;;;;;;;1019070;29;20118;-75
2023/05/03 00:54:33;;;;;;;2.30;1.48;;;;;;;;;;1017046;29;20028;-76
2023/05/03 00:55:04;;;;;;;0.60;0.47;;;;;;;;;;1019161;29;20023;-73
2023/05/03 00:55:35;;;;;;;1.00;1.00;;;;;;;;;;1019675;29;20023;-75
2023/05/03 00:56:06;;;;;;;2.38;0.98;;;;;;;;;;1021435;29;20491;-74
2023/05/03 00:56:37;;;;;;;1.38;1.05;;;;;;;;;;1021652;29;20111;-76
2023/05/03 00:57:07;;;;;;;1.08;0.88;;;;;;;;;;1022144;29;20035;-76
2023/05/03 00:57:38;;;;;;;2.10;1.13;;;;;;;;;;1020089;29;20027;-73
2023/05/03 00:58:08;;;;;;;1.23;1.02;;;;;;;;;;1021838;29;20480;-74
2023/05/03 00:58:39;;;;;;;8.02;1.58;;;;;;;;;;1021685;29;20110;-74
2023/05/03 00:59:10;;;;;;;3.38;2.38;;;;;;;;;;1021755;29;20024;-74
2023/05/03 00:59:41;;;;;;;2.97;1.52;;;;;;;;;;1021708;29;20094;-73
2023/05/03 01:00:12;;;;;;;1.63;0.98;;;;;;;;;;1021466;29;20055;-74
2023/05/03 01:00:43;;;;;;;4.65;2.08;;;;;;;;;;1021245;29;20503;-73
2023/05/03 01:01:14;;;;;;;1.70;1.58;;;;;;;;;;1021459;29;20211;-74
2023/05/03 01:01:48;;;;;;;1.23;0.70;;;;;;;;;;1020256;29;20110;-73
2023/05/03 01:02:18;;;;;;;1.75;1.30;;;;;;;;;;1021049;29;20034;-73
2023/05/03 01:02:49;;;;;;;3.47;1.25;;;;;;;;;;1020923;29;20027;-74
2023/05/03 01:03:19;;;;;;;0.88;0.68;;;;;;;;;;1017518;29;20119;-75
2023/05/03 01:03:50;;;;;;;0.28;0.28;;;;;;;;;;1020366;29;20028;-75
2023/05/03 01:04:21;;;;;;;1.25;1.02;;;;;;;;;;1021154;29;20114;-73
2023/05/03 01:04:52;;;;;;;1.75;1.20;;;;;;;;;;1019805;29;20626;-75
2023/05/03 01:05:24;;;;;;;2.55;1.48;;;;;;;;;;1022114;29;20029;-73
2023/05/03 01:05:59;;;;;;;2.05;0.95;;;;;;;;;;1021445;29;20530;-73
2023/05/03 01:06:42;;;;;;;2.83;1.25;;;;;;;;;;1021733;29;20034;-74
2023/05/03 01:07:28;;;;;;;0.50;0.30;;;;;;;;;;1021799;29;20401;-73
2023/05/03 01:07:58;;;;;;;1.95;0.85;;;;;;;;;;1021445;29;20027;-74
2023/05/03 01:08:38;;;;;;;0.73;0.70;;;;;;;;;;1021446;29;20067;-73
2023/05/03 01:09:16;;;;;;;1.20;1.05;;;;;;;;;;1021760;29;20110;-74
2023/05/03 01:10:03;;;;;;;2.15;1.75;;;;;;;;;;1021131;29;20075;-73
2023/05/03 01:10:52;;;;;;;3.15;1.65;;;;;;;;;;1022224;29;20055;-75
2023/05/03 01:11:25;;;;;;;10.25;2.38;;;;;;;;;;1021702;29;20119;-73
2023/05/03 01:12:11;;;;;;;0.65;0.60;;;;;;;;;;1019589;29;20100;-74
2023/05/03 01:12:59;;;;;;;3.10;1.42;;;;;;;;;;1019445;29;20031;-74
2023/05/03 01:13:48;;;;;;;1.92;0.82;;;;;;;;;;1022350;29;20027;-76
2023/05/03 01:14:31;;;;;;;1.75;0.90;;;;;;;;;;1022292;29;20082;-76
2023/05/03 01:15:07;;;;;;;0.77;0.57;;;;;;;;;;1022518;29;20103;-75
2023/05/03 01:15:37;;;;;;;9.90;1.08;;;;;;;;;;1021813;29;20023;-75
2023/05/03 01:16:12;;;;;;;4.18;2.65;;;;;;;;;;1019284;29;20507;-74
2023/05/03 01:16:46;;;;;;;3.08;1.48;;;;;;;;;;1018198;29;20551;-75
2023/05/03 01:17:18;;;;;;;1.23;1.05;;;;;;;;;;1016506;29;20032;-76
2023/05/03 01:17:51;;;;;;;1.55;0.98;;;;;;;;;;1016863;29;20476;-74
2023/05/03 01:18:33;;;;;;;1.88;1.45;;;;;;;;;;1017758;29;20042;-74
2023/05/03 01:19:12;;;;;;;1.77;1.33;;;;;;;;;;1022441;28;20038;-75
2023/05/03 01:19:50;;;;;;;0.73;0.70;;;;;;;;;;1023808;28;20774;-75
2023/05/03 01:20:25;;;;;;;3.75;1.85;;;;;;;;;;1023500;29;20035;-73
2023/05/03 01:20:58;;;;;;;2.25;0.95;;;;;;;;;;1023002;28;20497;-75
2023/05/03 01:21:29;;;;;;;3.65;1.65;;;;;;;;;;1021701;29;20019;-74
2023/05/03 01:22:14;;;;;;;6.07;1.05;;;;;;;;;;1024097;28;20121;-76
2023/05/03 01:23:04;;;;;;;3.80;0.60;;;;;;;;;;1021065;29;20033;-74
2023/05/03 01:23:39;;;;;;;2.08;1.00;;;;;;;;;;1017712;29;20440;-74
2023/05/03 01:24:21;;;;;;;2.30;1.63;;;;;;;;;;1018079;29;20107;-75
2023/05/03 01:24:59;;;;;;;4.50;1.42;;;;;;;;;;1017316;29;20027;-75
2023/05/03 01:25:29;;;;;;;1.65;0.70;;;;;;;;;;1021542;29;20126;-74
2023/05/03 01:26:13;;;;;;;3.60;1.23;;;;;;;;;;1023062;29;20384;-74
2023/05/03 01:26:44;;;;;;;0.88;0.82;;;;;;;;;;1021850;28;20563;-76
2023/05/03 01:27:15;;;;;;;2.80;0.90;;;;;;;;;;1020097;29;21447;-76
2023/05/03 01:27:45;;;;;;;4.22;1.73;;;;;;;;;;1018880;29;20028;-75
2023/05/03 01:28:16;;;;;;;2.10;0.73;;;;;;;;;;1017086;29;20036;-76
2023/05/03 01:28:46;;;;;;;5.53;2.00;;;;;;;;;;1017406;29;20138;-74
2023/05/03 01:29:17;;;;;;;5.57;2.10;;;;;;;;;;1020729;29;20038;-73
2023/05/03 01:29:47;;;;;;;1.15;0.95;;;;;;;;;;1022173;29;20035;-74
2023/05/03 01:30:20;;;;;;;5.30;2.35;;;;;;;;;;1020979;29;21277;-75
2023/05/03 01:30:52;;;;;;;2.33;1.65;;;;;;;;;;1021226;29;20031;-75
2023/05/03 01:31:27;;;;;;;1.33;0.95;;;;;;;;;;1020647;29;20030;-74
2023/05/03 01:32:02;;;;;;;1.50;0.75;;;;;;;;;;1021369;29;20031;-73
2023/05/03 01:32:51;;;;;;;1.00;0.63;;;;;;;;;;1021599;29;20030;-73
2023/05/03 01:33:30;;;;;;;0.95;0.60;;;;;;;;;;1022449;29;20035;-75
2023/05/03 01:34:11;;;;;;;2.45;1.45;;;;;;;;;;1020806;29;20028;-74
2023/05/03 01:34:50;;;;;;;5.50;1.08;;;;;;;;;;1021260;29;20067;-76
2023/05/03 01:35:33;;;;;;;1.15;1.02;;;;;;;;;;1020717;29;20492;-74
2023/05/03 01:36:15;;;;;;;0.57;0.50;;;;;;;;;;1019311;29;20613;-73
2023/05/03 01:36:47;;;;;;;2.08;1.40;;;;;;;;;;1019127;29;20039;-77
2023/05/03 01:37:19;;;;;;;6.30;2.83;;;;;;;;;;1020284;28;20031;-73
2023/05/03 01:37:50;;;;;;;5.50;1.55;;;;;;;;;;1019294;29;20031;-74
2023/05/03 01:38:21;;;;;;;1.33;0.85;;;;;;;;;;1021250;29;20134;-75
2023/05/03 01:38:52;;;;;;;2.38;0.55;;;;;;;;;;1020807;29;20038;-73
2023/05/03 01:39:25;;;;;;;4.47;1.25;;;;;;;;;;1023622;29;20023;-75
2023/05/03 01:39:58;;;;;;;2.92;1.20;;;;;;;;;;1023515;28;20027;-74
2023/05/03 01:40:31;;;;;;;0.63;0.63;;;;;;;;;;1021302;28;20050;-75
2023/05/03 01:41:05;;;;;;;4.72;1.23;;;;;;;;;;1020830;29;21086;-75
2023/05/03 01:41:36;;;;;;;0.55;0.50;;;;;;;;;;1021739;29;20123;-73
2023/05/03 01:42:07;;;;;;;5.75;2.00;;;;;;;;;;1022906;29;20023;-74
2023/05/03 01:42:38;;;;;;;1.90;1.10;;;;;;;;;;1021903;29;20360;-73
2023/05/03 01:43:11;;;;;;;2.10;1.45;;;;;;;;;;1021510;29;20110;-72
2023/05/03 01:43:42;;;;;;;9.25;1.58;;;;;;;;;;1022031;28;20038;-74
2023/05/03 01:44:13;;;;;;;6.38;1.33;;;;;;;;;;1022064;28;20077;-73
2023/05/03 01:44:44;;;;;;;2.05;1.40;;;;;;;;;;1023206;28;20090;-73
2023/05/03 01:45:15;;;;;;;0.60;0.60;;;;;;;;;;1019428;29;20031;-73
2023/05/03 01:45:45;;;;;;;1.33;0.95;;;;;;;;;;1019387;29;20499;-73
2023/05/03 01:46:16;;;;;;;2.70;1.90;;;;;;;;;;1016284;29;20042;-73
2023/05/03 01:46:47;;;;;;;17.23;1.23;;;;;;;;;;1017387;29;20559;-74
2023/05/03 01:47:17;;;;;;;16.27;1.25;;;;;;;;;;1014695;29;20032;-76
2023/05/03 01:47:48;;;;;;;13.40;2.10;;;;;;;;;;1020263;29;20034;-74
2023/05/03 01:48:18;;;;;;;1.42;0.93;;;;;;;;;;1022305;28;20502;-73
2023/05/03 01:48:49;;;;;;;2.55;1.20;;;;;;;;;;1020863;28;20027;-73
2023/05/03 01:49:19;;;;;;;1.20;1.00;;;;;;;;;;1018446;29;20194;-72
2023/05/03 01:49:50;;;;;;;1.17;1.08;;;;;;;;;;1018882;29;20663;-73
2023/05/03 01:50:20;;;;;;;3.03;0.93;;;;;;;;;;1017739;29;20036;-75
2023/05/03 01:50:51;;;;;;;2.00;1.60;;;;;;;;;;1018389;29;20029;-72
2023/05/03 01:51:21;;;;;;;1.33;0.88;;;;;;;;;;1022465;29;20047;-73
2023/05/03 01:51:52;;;;;;;1.30;0.98;;;;;;;;;;1023010;29;20397;-75
2023/05/03 01:52:22;;;;;;;0.85;0.75;;;;;;;;;;1022759;28;20022;-74
2023/05/03 01:52:53;;;;;;;1.13;1.02;;;;;;;;;;1021880;29;20144;-75
2023/05/03 01:53:23;;;;;;;1.25;1.15;;;;;;;;;;1021119;29;20046;-73
2023/05/03 01:53:54;;;;;;;0.75;0.43;;;;;;;;;;1022197;29;20039;-75
2023/05/03 01:54:25;;;;;;;2.70;1.08;;;;;;;;;;1020239;29;20034;-74
2023/05/03 01:54:55;;;;;;;0.55;0.50;;;;;;;;;;1020823;29;20035;-76
2023/05/03 01:55:26;;;;;;;0.82;0.82;;;;;;;;;;1020959;28;20073;-74
2023/05/03 01:55:56;;;;;;;3.13;1.58;;;;;;;;;;1021570;28;20490;-74
2023/05/03 01:56:27;;;;;;;1.27;0.63;;;;;;;;;;1021742;29;20031;-73
2023/05/03 01:56:57;;;;;;;1.05;0.60;;;;;;;;;;1022479;28;20035;-73
2023/05/03 01:57:28;;;;;;;2.15;1.60;;;;;;;;;;1021437;29;20036;-74
2023/05/03 01:57:58;;;;;;;4.05;1.77;;;;;;;;;;1022464;29;20035;-73
2023/05/03 01:58:29;;;;;;;3.13;1.15;;;;;;;;;;1021918;28;20035;-75
2023/05/03 01:59:00;;;;;;;2.17;0.95;;;;;;;;;;1022901;29;20039;-73
2023/05/03 01:59:30;;;;;;;0.57;0.47;;;;;;;;;;1022271;28;20262;-74
2023/05/03 02:00:01;;;;;;;0.70;0.60;;;;;;;;;;1022261;29;20053;-73
2023/05/03 02:00:32;;;;;;;0.63;0.40;;;;;;;;;;1021341;29;20027;-76
2023/05/03 02:01:04;;;;;;;1.98;1.25;;;;;;;;;;1019384;29;20484;-74
2023/05/03 02:01:34;;;;;;;1.08;0.63;;;;;;;;;;1021752;29;20545;-74
2023/05/03 02:02:05;;;;;;;2.53;1.08;;;;;;;;;;1021676;29;20031;-73
2023/05/03 02:02:35;;;;;;;1.63;1.27;;;;;;;;;;1018293;29;20023;-75
2023/05/03 02:03:06;;;;;;;1.20;1.10;;;;;;;;;;1016996;29;20127;-76
2023/05/03 02:03:38;;;;;;;2.60;1.55;;;;;;;;;;1018582;29;20480;-74
2023/05/03 02:04:10;;;;;;;3.88;1.88;;;;;;;;;;1016990;29;20060;-74
2023/05/03 02:04:40;;;;;;;4.82;1.73;;;;;;;;;;1022348;29;20388;-73
2023/05/03 02:05:11;;;;;;;1.48;0.63;;;;;;;;;;1022329;29;20091;-74
2023/05/03 02:05:42;;;;;;;0.73;0.63;;;;;;;;;;1021786;29;20496;-73
2023/05/03 02:06:12;;;;;;;5.38;1.35;;;;;;;;;;1020999;29;20388;-72
2023/05/03 02:06:44;;;;;;;4.60;1.08;;;;;;;;;;1021969;29;20031;-75
2023/05/03 02:07:14;;;;;;;1.60;1.13;;;;;;;;;;1021751;29;20031;-74
2023/05/03 02:07:45;;;;;;;6.53;2.30;;;;;;;;;;1020906;29;20031;-74
2023/05/03 02:08:16;;;;;;;2.85;1.63;;;;;;;;;;1021599;29;20027;-74
2023/05/03 02:08:47;;;;;;;2.08;1.33;;;;;;;;;;1019583;29;20178;-75
2023/05/03 02:09:17;;;;;;;2.33;1.05;;;;;;;;;;1022234;29;20118;-74
2023/05/03 02:09:48;;;;;;;2.47;1.05;;;;;;;;;;1019502;29;20027;-74
2023/05/03 02:10:19;;;;;;;1.50;1.08;;;;;;;;;;1019387;29;20023;-73
2023/05/03 02:10:49;;;;;;;1.30;0.75;;;;;;;;;;1019106;28;20159;-75
2023/05/03 02:11:20;;;;;;;1.90;1.80;;;;;;;;;;1020382;29;20110;-75
2023/05/03 02:11:53;;;;;;;2.90;1.08;;;;;;;;;;1020979;29;20079;-74
2023/05/03 02:12:24;;;;;;;0.63;0.50;;;;;;;;;;1020405;29;20474;-74
2023/05/03 02:12:55;;;;;;;1.25;0.95;;;;;;;;;;1020530;29;20059;-74
2023/05/03 02:13:25;;;;;;;1.83;1.65;;;;;;;;;;1017123;29;20829;-73
2023/05/03 02:13:56;;;;;;;1.38;1.27;;;;;;;;;;1015677;29;20100;-72
2023/05/03 02:14:27;;;;;;;4.93;1.25;;;;;;;;;;1018114;29;20396;-75
2023/05/03 02:14:57;;;;;;;5.03;2.13;;;;;;;;;;1017744;29;20095;-72
2023/05/03 02:15:28;;;;;;;9.60;1.00;;;;;;;;;;1020464;29;20027;-74
2023/05/03 02:15:59;;;;;;;2.78;1.23;;;;;;;;;;1018211;29;20040;-74
2023/05/03 02:16:29;;;;;;;2.30;0.77;;;;;;;;;;1018952;29;20039;-73
2023/05/03 02:17:01;;;;;;;0.55;0.52;;;;;;;;;;1019318;29;20774;-76
2023/05/03 02:17:33;;;;;;;1.00;0.70;;;;;;;;;;1016241;29;20024;-74
2023/05/03 02:18:04;;;;;;;3.42;1.67;;;;;;;;;;1016536;29;20063;-74
2023/05/03 02:18:35;;;;;;;0.88;0.80;;;;;;;;;;1016989;29;20088;-74
2023/05/03 02:19:07;;;;;;;0.98;0.60;;;;;;;;;;1017056;29;20080;-76
2023/05/03 02:19:38;;;;;;;0.57;0.35;;;;;;;;;;1018271;29;20023;-76
2023/05/03 02:20:09;;;;;;;2.20;1.33;;;;;;;;;;1017735;29;20035;-75
2023/05/03 02:20:43;;;;;;;3.30;1.05;;;;;;;;;;1019986;29;20445;-73
2023/05/03 02:21:15;;;;;;;2.38;1.20;;;;;;;;;;1019772;28;20035;-73
2023/05/03 02:21:46;;;;;;;0.88;0.50;;;;;;;;;;1015731;29;20083;-73
2023/05/03 02:22:17;;;;;;;2.05;1.38;;;;;;;;;;1014146;29;20087;-77
2023/05/03 02:22:48;;;;;;;2.35;1.20;;;;;;;;;;1017668;29;20572;-74
2023/05/03 02:23:18;;;;;;;3.85;1.55;;;;;;;;;;1017209;29;20070;-76
2023/05/03 02:23:49;;;;;;;2.75;0.90;;;;;;;;;;1017296;29;20559;-74
2023/05/03 02:24:22;;;;;;;3.25;2.03;;;;;;;;;;1017320;29;20036;-75
2023/05/03 02:24:53;;;;;;;3.75;2.67;;;;;;;;;;1021888;29;20067;-74
2023/05/03 02:25:23;;;;;;;1.10;0.77;;;;;;;;;;1021247;29;20107;-73
2023/05/03 02:25:54;;;;;;;6.35;1.45;;;;;;;;;;1020024;29;20034;-74
2023/05/03 02:26:25;;;;;;;5.38;1.58;;;;;;;;;;1019908;29;20368;-74
2023/05/03 02:26:56;;;;;;;0.60;0.60;;;;;;;;;;1020419;29;20035;-75
2023/05/03 02:27:27;;;;;;;2.33;1.60;;;;;;;;;;1018207;29;20144;-75
2023/05/03 02:27:58;;;;;;;2.90;2.33;;;;;;;;;;1018491;29;20032;-77
2023/05/03 02:28:29;;;;;;;3.03;1.23;;;;;;;;;;1017541;29;20031;-76
2023/05/03 02:29:00;;;;;;;1.88;1.50;;;;;;;;;;1014442;29;20033;-75
2023/05/03 02:29:31;;;;;;;3.97;2.08;;;;;;;;;;1011312;29;20032;-75
2023/05/03 02:30:02;;;;;;;1.70;0.43;;;;;;;;;;1010628;29;20116;-74
2023/05/03 02:30:33;;;;;;;3.30;1.55;;;;;;;;;;1009923;29;20052;-76
2023/05/03 02:31:05;;;;;;;1.73;1.33;;;;;;;;;;1013866;29;20024;-74
2023/05/03 02:31:36;;;;;;;2.28;0.95;;;;;;;;;;1015496;29;20055;-75
2023/05/03 02:32:06;;;;;;;3.10;1.95;;;;;;;;;;1016385;29;20022;-76
2023/05/03 02:32:37;;;;;;;5.70;1.35;;;;;;;;;;1019294;29;20032;-74
2023/05/03 02:33:08;;;;;;;1.75;0.60;;;;;;;;;;1014678;29;20024;-75
2023/05/03 02:33:39;;;;;;;3.70;1.65;;;;;;;;;;1017324;29;20032;-75
2023/05/03 02:34:10;;;;;;;1.90;1.52;;;;;;;;;;1018021;29;20114;-75
2023/05/03 02:34:41;;;;;;;2.33;1.33;;;;;;;;;;1016628;29;20060;-76
2023/05/03 02:35:11;;;;;;;8.63;1.35;;;;;;;;;;1021770;29;20055;-74
2023/05/03 02:35:42;;;;;;;1.55;0.98;;;;;;;;;;1020294;29;20035;-74
2023/05/03 02:36:13;;;;;;;2.60;1.30;;;;;;;;;;1021227;29;20027;-74
2023/05/03 02:36:47;;;;;;;1.40;1.17;;;;;;;;;;1022460;29;20026;-73
2023/05/03 02:37:18;;;;;;;2.67;1.25;;;;;;;;;;1022054;28;20115;-73
2023/05/03 02:37:48;;;;;;;1.92;1.60;;;;;;;;;;1019965;29;20475;-74
2023/05/03 02:38:19;;;;;;;2.08;1.58;;;;;;;;;;1021063;28;20011;-76
2023/05/03 02:38:50;;;;;;;0.93;0.63;;;;;;;;;;1020825;28;20126;-76
2023/05/03 02:39:24;;;;;;;2.08;1.25;;;;;;;;;;1019819;29;20149;-75
2023/05/03 02:39:55;;;;;;;1.95;1.48;;;;;;;;;;1021755;28;20042;-74
2023/05/03 02:40:27;;;;;;;2.83;2.53;;;;;;;;;;1022341;28;20038;-76
2023/05/03 02:40:58;;;;;;;4.53;1.63;;;;;;;;;;1019179;29;20377;-76
2023/05/03 02:41:30;;;;;;;12.43;2.38;;;;;;;;;;1014152;29;20024;-74
2023/05/03 02:42:02;;;;;;;1.25;1.02;;;;;;;;;;1014203;29;20117;-76
2023/05/03 02:42:34;;;;;;;8.18;2.40;;;;;;;;;;1015790;29;20035;-75
2023/05/03 02:43:05;;;;;;;14.38;1.27;;;;;;;;;;1016615;29;20028;-74
2023/05/03 02:43:36;;;;;;;4.05;2.00;;;;;;;;;;1016916;29;20030;-73
2023/05/03 02:44:07;;;;;;;5.05;2.22;;;;;;;;;;1016180;29;20161;-74
2023/05/03 02:44:38;;;;;;;1.17;1.00;;;;;;;;;;1015113;29;20036;-73
2023/05/03 02:45:09;;;;;;;1.38;0.98;;;;;;;;;;1009716;29;20579;-74
2023/05/03 02:45:41;;;;;;;2.38;1.50;;;;;;;;;;1014086;29;20035;-75
2023/05/03 02:46:12;;;;;;;2.28;0.98;;;;;;;;;;1013693;29;20043;-75
2023/05/03 02:46:43;;;;;;;2.53;1.48;;;;;;;;;;1016610;29;20382;-76
2023/05/03 02:47:14;;;;;;;1.55;1.30;;;;;;;;;;1013179;29;20059;-74
2023/05/03 02:47:44;;;;;;;6.88;1.60;;;;;;;;;;1014522;29;20059;-75
2023/05/03 02:48:15;;;;;;;3.15;1.25;;;;;;;;;;1014513;29;20040;-73
2023/05/03 02:48:46;;;;;;;4.57;1.90;;;;;;;;;;1016388;29;20031;-74
2023/05/03 02:49:16;;;;;;;4.82;1.42;;;;;;;;;;1019352;29;20035;-74
2023/05/03 02:49:47;;;;;;;5.00;1.77;;;;;;;;;;1019049;28;20471;-74
2023/05/03 02:50:18;;;;;;;2.20;1.13;;;;;;;;;;1020223;28;20575;-74
2023/05/03 02:50:49;;;;;;;4.45;1.55;;;;;;;;;;1020247;28;20031;-74
2023/05/03 02:51:19;;;;;;;2.70;1.75;;;;;;;;;;1015977;29;20746;-75
2023/05/03 02:51:51;;;;;;;1.77;1.13;;;;;;;;;;1018174;29;20491;-75
2023/05/03 02:52:22;;;;;;;2.63;1.70;;;;;;;;;;1014106;29;20027;-73
2023/05/03 02:52:53;;;;;;;2.42;1.63;;;;;;;;;;1015982;29;20535;-74
2023/05/03 02:53:24;;;;;;;6.15;1.55;;;;;;;;;;1018045;29;20039;-73
2023/05/03 02:53:55;;;;;;;3.47;1.65;;;;;;;;;;1017286;29;20042;-73
2023/05/03 02:54:27;;;;;;;1.50;0.80;;;;;;;;;;1016325;29;20163;-76
2023/05/03 02:55:00;;;;;;;1.35;0.63;;;;;;;;;;1012259;29;20032;-74
2023/05/03 02:55:31;;;;;;;2.45;1.55;;;;;;;;;;1012679;29;20127;-75
2023/05/03 02:56:02;;;;;;;9.65;1.65;;;;;;;;;;1010838;29;20091;-76
2023/05/03 02:56:33;;;;;;;3.65;1.35;;;;;;;;;;1010837;29;20525;-76
2023/05/03 02:57:04;;;;;;;2.05;1.35;;;;;;;;;;1012021;29;20655;-75
2023/05/03 02:57:35;;;;;;;4.10;1.80;;;;;;;;;;1012840;29;20095;-76
2023/05/03 02:58:06;;;;;;;3.75;2.60;;;;;;;;;;1011836;29;20047;-74
2023/05/03 02:58:37;;;;;;;3.03;1.38;;;;;;;;;;1015066;29;20046;-74
2023/05/03 02:59:08;;;;;;;2.53;1.25;;;;;;;;;;1016602;29;20077;-75
2023/05/03 02:59:39;;;;;;;3.55;1.70;;;;;;;;;;1017986;29;20142;-75
2023/05/03 03:00:10;;;;;;;1.77;0.73;;;;;;;;;;1020786;28;20062;-74
2023/05/03 03:00:41;;;;;;;0.73;0.47;;;;;;;;;;1019494;28;20035;-77
2023/05/03 03:01:12;;;;;;;1.90;1.23;;;;;;;;;;1021263;28;20079;-76
2023/05/03 03:01:45;;;;;;;1.23;1.00;;;;;;;;;;1018136;29;20031;-74
2023/05/03 03:02:16;;;;;;;3.83;1.42;;;;;;;;;;1013483;29;21057;-75
2023/05/03 03:02:50;;;;;;;2.33;1.55;;;;;;;;;;1013642;29;20130;-75
2023/05/03 03:03:20;;;;;;;5.18;2.25;;;;;;;;;;1013962;29;20036;-75
2023/05/03 03:03:51;;;;;;;8.27;1.50;;;;;;;;;;1015284;29;20027;-74
2023/05/03 03:04:21;;;;;;;1.73;0.95;;;;;;;;;;1020635;28;20137;-77
2023/05/03 03:04:52;;;;;;;5.47;2.22;;;;;;;;;;1020812;28;20251;-74
2023/05/03 03:05:22;;;;;;;6.90;2.03;;;;;;;;;;1019670;28;20027;-74
2023/05/03 03:05:53;;;;;;;5.53;2.13;;;;;;;;;;1020973;28;20498;-75
2023/05/03 03:06:24;;;;;;;3.75;1.65;;;;;;;;;;1020472;28;20450;-76
2023/05/03 03:06:55;;;;;;;3.35;1.52;;;;;;;;;;1021976;28;20023;-75
2023/05/03 03:07:26;;;;;;;3.55;1.92;;;;;;;;;;1020617;28;20122;-75
2023/05/03 03:07:56;;;;;;;4.80;1.10;;;;;;;;;;1019566;28;20079;-76
2023/05/03 03:08:27;;;;;;;2.67;1.65;;;;;;;;;;1015376;29;20051;-74
2023/05/03 03:08:58;;;;;;;8.35;1.38;;;;;;;;;;1015684;29;20028;-77
2023/05/03 03:09:29;;;;;;;2.22;0.63;;;;;;;;;;1015347;29;20032;-74
2023/05/03 03:10:04;;;;;;;2.05;1.25;;;;;;;;;;1018771;28;20119;-76
2023/05/03 03:10:35;;;;;;;7.03;1.75;;;;;;;;;;1020720;29;20507;-74
2023/05/03 03:11:06;;;;;;;4.20;1.45;;;;;;;;;;1016475;29;20197;-77